createdAt,value
2019-04-30T00:00:15.776Z,217.00
2019-04-30T00:02:55.159Z,262.00
2019-04-30T00:05:25.419Z,216.00
2019-04-30T00:07:57.413Z,203.00
2019-04-30T00:10:29.486Z,226.00
2019-04-30T00:12:56.337Z,252.50
2019-04-30T00:15:25.975Z,289.00
2019-04-30T00:17:58.701Z,303.00
2019-04-30T00:20:29.983Z,323.00
2019-04-30T00:22:56.536Z,322.50
2019-04-30T00:25:28.560Z,338.50
2019-04-30T00:28:00.308Z,289.50
2019-04-30T00:30:27.002Z,284.00
2019-04-30T00:32:56.092Z,310.50
2019-04-30T00:35:25.453Z,272.50
2019-04-30T00:37:57.579Z,280.00
2019-04-30T00:40:26.644Z,252.50
2019-04-30T00:43:00.222Z,288.50
2019-04-30T00:45:26.910Z,292.00
2019-04-30T00:47:56.049Z,258.50
2019-04-30T00:50:25.128Z,280.00
2019-04-30T00:52:57.847Z,309.50
2019-04-30T00:55:26.569Z,276.00
2019-04-30T00:57:55.870Z,273.00
2019-04-30T01:00:29.441Z,304.00
2019-04-30T01:03:05.883Z,176.00
2019-04-30T01:05:35.356Z,171.50
2019-04-30T01:08:06.916Z,225.50
2019-04-30T01:10:35.813Z,215.50
2019-04-30T01:13:08.152Z,224.00
2019-04-30T01:15:35.852Z,243.50
2019-04-30T01:18:05.020Z,298.00
2019-04-30T01:20:34.195Z,242.50
2019-04-30T01:23:09.842Z,207.50
2019-04-30T01:25:34.351Z,136.50
2019-04-30T01:28:03.699Z,143.00
2019-04-30T01:30:32.861Z,134.00
2019-04-30T01:33:01.979Z,146.00
2019-04-30T01:35:32.694Z,248.50
2019-04-30T01:38:04.092Z,243.00
2019-04-30T01:40:33.835Z,276.50
2019-04-30T01:43:02.868Z,315.50
2019-04-30T01:45:31.878Z,336.00
2019-04-30T01:48:08.608Z,310.50
2019-04-30T01:50:33.762Z,330.50
2019-04-30T01:53:04.760Z,319.00
2019-04-30T01:55:55.222Z,355.00
2019-04-30T01:58:42.101Z,332.50
2019-04-30T02:01:16.502Z,309.50
2019-04-30T02:03:45.500Z,325.50
2019-04-30T02:06:14.671Z,307.50
2019-04-30T02:08:43.835Z,312.50
2019-04-30T02:11:13.038Z,341.00
2019-04-30T02:13:42.113Z,315.50
2019-04-30T02:16:11.236Z,315.00
2019-04-30T02:18:40.282Z,323.00
2019-04-30T02:21:11.425Z,265.00
2019-04-30T02:23:40.023Z,320.50
2019-04-30T02:26:09.046Z,205.50
2019-04-30T02:28:39.342Z,189.50
2019-04-30T02:31:09.305Z,277.00
2019-04-30T02:33:40.530Z,266.50
2019-04-30T02:36:43.780Z,201.50
2019-04-30T02:39:13.407Z,160.00
2019-04-30T02:41:44.199Z,253.00
2019-04-30T02:44:14.734Z,178.00
2019-04-30T02:46:46.220Z,219.00
2019-04-30T02:49:20.182Z,172.00
2019-04-30T02:51:50.136Z,153.00
2019-04-30T02:54:25.476Z,151.00
2019-04-30T02:57:13.522Z,156.50
2019-04-30T03:00:00.857Z,154.00
2019-04-30T03:02:31.458Z,144.50
2019-04-30T03:05:00.535Z,146.00
2019-04-30T03:07:29.780Z,145.00
2019-04-30T03:09:59.730Z,155.00
2019-04-30T03:12:33.035Z,150.00
2019-04-30T03:15:00.547Z,145.00
2019-04-30T03:17:50.366Z,149.50
2019-04-30T03:20:55.377Z,148.00
2019-04-30T03:23:24.386Z,147.00
2019-04-30T03:25:53.407Z,148.50
2019-04-30T03:28:22.494Z,140.00
2019-04-30T03:30:57.213Z,152.00
2019-04-30T03:33:23.273Z,156.50
2019-04-30T03:35:54.123Z,154.50
2019-04-30T03:38:23.283Z,161.50
2019-04-30T03:40:52.408Z,155.50
2019-04-30T03:43:21.495Z,144.50
2019-04-30T03:45:50.485Z,169.50
2019-04-30T03:48:20.182Z,172.00
2019-04-30T03:50:56.335Z,160.50
2019-04-30T03:53:20.353Z,160.50
2019-04-30T03:55:50.630Z,210.50
2019-04-30T03:58:21.280Z,154.50
2019-04-30T04:01:09.937Z,188.00
2019-04-30T04:04:00.191Z,154.00
2019-04-30T04:06:32.585Z,173.00
2019-04-30T04:09:14.618Z,168.00
2019-04-30T04:11:45.146Z,167.50
2019-04-30T04:14:14.156Z,161.50
2019-04-30T04:16:43.325Z,154.00
2019-04-30T04:19:12.341Z,146.00
2019-04-30T04:21:42.110Z,191.00
2019-04-30T04:24:11.411Z,182.00
2019-04-30T04:26:43.541Z,191.00
2019-04-30T04:29:12.507Z,176.00
2019-04-30T04:31:41.679Z,165.00
2019-04-30T04:34:10.714Z,167.50
2019-04-30T04:36:43.118Z,162.50
2019-04-30T04:39:10.656Z,177.00
2019-04-30T04:41:40.032Z,270.00
2019-04-30T04:44:12.618Z,228.50
2019-04-30T04:46:40.249Z,262.00
2019-04-30T04:49:09.335Z,305.50
2019-04-30T04:51:42.040Z,210.00
2019-04-30T04:54:10.417Z,165.50
2019-04-30T04:56:40.060Z,184.00
2019-04-30T04:59:10.277Z,147.00
2019-04-30T05:01:39.588Z,194.00
2019-04-30T05:04:11.483Z,162.50
2019-04-30T05:06:39.593Z,245.00
2019-04-30T05:09:09.719Z,221.00
2019-04-30T05:11:39.551Z,212.00
2019-04-30T05:14:11.147Z,285.50
2019-04-30T05:16:41.439Z,215.50
2019-04-30T05:19:10.516Z,230.50
2019-04-30T05:21:44.153Z,179.00
2019-04-30T05:24:10.276Z,179.00
2019-04-30T05:26:39.267Z,176.50
2019-04-30T05:29:09.550Z,221.00
2019-04-30T05:31:38.760Z,238.00
2019-04-30T05:34:10.123Z,183.00
2019-04-30T05:36:39.129Z,143.00
2019-04-30T05:39:08.775Z,171.00
2019-04-30T05:41:38.634Z,196.50
2019-04-30T05:44:09.167Z,275.00
2019-04-30T05:46:39.732Z,274.50
2019-04-30T05:49:11.072Z,300.00
2019-04-30T05:51:52.389Z,311.00
2019-04-30T05:54:12.207Z,257.50
2019-04-30T05:56:42.705Z,338.00
2019-04-30T05:59:12.059Z,305.00
2019-04-30T06:01:47.876Z,267.50
2019-04-30T06:04:13.690Z,273.00
2019-04-30T06:06:42.756Z,286.50
2019-04-30T06:09:30.720Z,273.50
2019-04-30T06:12:11.426Z,301.50
2019-04-30T06:14:51.899Z,293.00
2019-04-30T06:17:21.471Z,256.50
2019-04-30T06:19:51.435Z,267.00
2019-04-30T06:22:21.327Z,220.00
2019-04-30T06:24:50.505Z,244.00
2019-04-30T06:27:19.785Z,151.00
2019-04-30T06:29:49.472Z,195.50
2019-04-30T06:32:19.012Z,166.00
2019-04-30T06:34:49.864Z,158.50
2019-04-30T06:37:19.520Z,168.00
2019-04-30T06:39:49.994Z,159.50
2019-04-30T06:42:19.633Z,153.00
2019-04-30T06:44:49.576Z,172.00
2019-04-30T06:47:32.124Z,168.50
2019-04-30T06:49:50.077Z,157.00
2019-04-30T06:52:22.957Z,168.50
2019-04-30T06:54:50.052Z,160.50
2019-04-30T06:57:19.861Z,158.50
2019-04-30T06:59:51.260Z,169.50
2019-04-30T07:02:20.146Z,155.00
2019-04-30T07:04:51.202Z,159.50
2019-04-30T07:07:23.174Z,139.50
2019-04-30T07:10:00.918Z,163.50
2019-04-30T07:12:38.982Z,160.50
2019-04-30T07:15:08.762Z,151.00
2019-04-30T07:17:40.736Z,164.00
2019-04-30T07:20:10.468Z,150.00
2019-04-30T07:22:45.182Z,137.00
2019-04-30T07:25:10.450Z,134.00
2019-04-30T07:27:40.156Z,148.50
2019-04-30T07:30:10.238Z,156.00
2019-04-30T07:32:39.267Z,150.50
2019-04-30T07:35:09.579Z,154.50
2019-04-30T07:37:39.311Z,142.00
2019-04-30T07:40:09.281Z,164.50
2019-04-30T07:42:44.709Z,161.00
2019-04-30T07:45:10.343Z,161.50
2019-04-30T07:47:39.773Z,158.00
2019-04-30T07:50:10.660Z,157.00
2019-04-30T07:52:57.719Z,150.50
2019-04-30T07:55:10.976Z,154.50
2019-04-30T07:57:40.492Z,150.00
2019-04-30T08:00:10.286Z,155.50
2019-04-30T08:02:44.459Z,175.00
2019-04-30T08:05:24.074Z,155.50
2019-04-30T08:07:53.107Z,151.00
2019-04-30T08:10:22.264Z,168.50
2019-04-30T08:12:51.689Z,160.50
2019-04-30T08:15:23.215Z,184.50
2019-04-30T08:18:02.771Z,175.50
2019-04-30T08:20:22.971Z,150.00
2019-04-30T08:22:52.065Z,150.50
2019-04-30T08:25:22.063Z,130.00
2019-04-30T08:27:51.211Z,137.00
2019-04-30T08:30:26.065Z,149.50
2019-04-30T08:32:51.104Z,140.50
2019-04-30T08:35:20.263Z,141.00
2019-04-30T08:37:49.825Z,132.00
2019-04-30T08:40:19.283Z,142.00
2019-04-30T08:42:49.491Z,140.00
2019-04-30T08:45:19.750Z,140.00
2019-04-30T08:47:49.431Z,144.50
2019-04-30T08:50:20.029Z,133.50
2019-04-30T08:52:50.099Z,146.50
2019-04-30T08:55:22.519Z,134.50
2019-04-30T08:57:51.731Z,151.00
2019-04-30T09:00:21.018Z,142.50
2019-04-30T09:02:50.000Z,139.00
2019-04-30T09:05:24.498Z,146.00
2019-04-30T09:07:53.490Z,153.50
2019-04-30T09:10:22.682Z,155.50
2019-04-30T09:12:52.018Z,165.00
2019-04-30T09:15:40.418Z,171.50
2019-04-30T09:18:12.379Z,167.00
2019-04-30T09:20:40.940Z,167.50
2019-04-30T09:23:11.290Z,154.50
2019-04-30T09:25:42.720Z,150.00
2019-04-30T09:28:11.888Z,193.50
2019-04-30T09:30:40.899Z,159.00
2019-04-30T09:33:11.155Z,207.00
2019-04-30T09:35:40.460Z,262.50
2019-04-30T09:38:10.852Z,220.50
2019-04-30T09:40:41.701Z,310.50
2019-04-30T09:43:10.684Z,237.00
2019-04-30T09:45:39.702Z,293.00
2019-04-30T09:48:09.372Z,265.00
2019-04-30T09:50:39.364Z,256.50
2019-04-30T09:53:10.054Z,262.50
2019-04-30T09:55:40.594Z,254.00
2019-04-30T09:58:17.184Z,266.50
2019-04-30T10:00:40.536Z,187.50
2019-04-30T10:03:10.602Z,202.50
2019-04-30T10:05:41.543Z,221.00
2019-04-30T10:08:10.705Z,173.50
2019-04-30T10:10:49.148Z,265.50
2019-04-30T10:13:18.166Z,163.00
2019-04-30T10:15:59.553Z,142.00
2019-04-30T10:18:28.641Z,151.00
2019-04-30T10:20:58.909Z,192.00
2019-04-30T10:23:30.194Z,201.00
2019-04-30T10:26:00.554Z,201.00
2019-04-30T10:28:30.242Z,193.50
2019-04-30T10:30:59.262Z,190.50
2019-04-30T10:33:28.750Z,193.50
2019-04-30T10:35:59.467Z,189.00
2019-04-30T10:38:29.377Z,191.00
2019-04-30T10:40:59.569Z,180.50
2019-04-30T10:43:29.406Z,192.50
2019-04-30T10:46:02.142Z,212.00
2019-04-30T10:48:31.314Z,220.50
2019-04-30T10:51:00.438Z,192.50
2019-04-30T10:53:29.708Z,155.00
2019-04-30T10:55:59.526Z,182.50
2019-04-30T10:58:28.639Z,220.50
2019-04-30T11:00:59.557Z,183.00
2019-04-30T11:03:29.155Z,183.50
2019-04-30T11:05:58.597Z,230.00
2019-04-30T11:08:27.721Z,219.50
2019-04-30T11:10:56.830Z,143.00
2019-04-30T11:13:25.843Z,209.00
2019-04-30T11:15:54.890Z,254.50
2019-04-30T11:18:24.127Z,300.00
2019-04-30T11:20:53.729Z,223.50
2019-04-30T11:23:23.085Z,157.50
2019-04-30T11:25:52.822Z,227.00
2019-04-30T11:28:22.702Z,200.50
2019-04-30T11:30:55.068Z,165.00
2019-04-30T11:33:24.535Z,247.00
2019-04-30T11:36:02.374Z,153.00
2019-04-30T11:38:25.754Z,132.50
2019-04-30T11:40:54.744Z,193.50
2019-04-30T11:43:23.736Z,173.00
2019-04-30T11:46:33.241Z,214.50
2019-04-30T11:49:02.339Z,205.50
2019-04-30T11:51:31.455Z,195.50
2019-04-30T11:54:00.479Z,148.50
2019-04-30T11:56:29.462Z,70.00
2019-04-30T11:58:58.952Z,95.50
2019-04-30T12:01:29.927Z,107.50
2019-04-30T12:03:59.845Z,105.50
2019-04-30T12:06:30.473Z,163.00
2019-04-30T12:09:14.686Z,215.00
2019-04-30T12:11:43.959Z,226.50
2019-04-30T12:14:16.004Z,217.00
2019-04-30T12:16:45.014Z,223.00
2019-04-30T12:19:14.092Z,226.00
2019-04-30T12:21:43.174Z,153.00
2019-04-30T12:24:12.169Z,121.50
2019-04-30T12:26:41.235Z,92.50
2019-04-30T12:29:11.263Z,182.00
2019-04-30T12:31:40.431Z,139.50
2019-04-30T12:34:09.603Z,127.00
2019-04-30T12:36:38.845Z,120.50
2019-04-30T12:39:08.181Z,258.00
2019-04-30T12:41:39.004Z,242.00
2019-04-30T12:44:08.034Z,343.50
2019-04-30T12:46:38.727Z,331.00
2019-04-30T12:49:13.836Z,250.00
2019-04-30T12:51:53.924Z,250.50
2019-04-30T12:54:48.239Z,368.50
2019-04-30T12:57:29.467Z,248.00
2019-04-30T13:00:00.461Z,241.50
2019-04-30T13:02:29.807Z,248.00
2019-04-30T13:05:00.536Z,275.00
2019-04-30T13:07:30.601Z,259.50
2019-04-30T13:10:01.431Z,268.50
2019-04-30T13:12:32.516Z,241.50
2019-04-30T13:15:02.003Z,247.50
2019-04-30T13:17:30.998Z,241.50
2019-04-30T13:20:00.014Z,242.50
2019-04-30T13:22:29.085Z,239.00
2019-04-30T13:24:59.586Z,234.00
2019-04-30T13:27:30.671Z,234.50
2019-04-30T13:30:05.144Z,238.00
2019-04-30T13:32:41.929Z,225.50
2019-04-30T13:35:11.369Z,224.00
2019-04-30T13:37:49.279Z,231.50
2019-04-30T13:40:31.353Z,221.50
2019-04-30T13:43:00.713Z,218.00
2019-04-30T13:45:29.869Z,218.00
2019-04-30T13:47:59.048Z,221.00
2019-04-30T13:50:29.207Z,233.00
2019-04-30T13:52:58.871Z,210.00
2019-04-30T13:55:30.476Z,212.50
2019-04-30T13:57:59.565Z,216.00
2019-04-30T14:00:29.815Z,214.50
2019-04-30T14:03:05.993Z,210.50
2019-04-30T14:05:35.175Z,211.50
2019-04-30T14:08:29.011Z,214.00
2019-04-30T14:10:59.162Z,211.00
2019-04-30T14:13:28.326Z,214.50
2019-04-30T14:15:57.479Z,225.00
2019-04-30T14:18:30.819Z,222.50
2019-04-30T14:21:00.806Z,224.50
2019-04-30T14:23:28.671Z,208.00
2019-04-30T14:26:00.897Z,210.50
2019-04-30T14:28:29.232Z,256.50
2019-04-30T14:31:00.579Z,293.00
2019-04-30T14:33:29.571Z,256.00
2019-04-30T14:36:00.617Z,327.00
2019-04-30T14:38:29.466Z,141.50
2019-04-30T14:41:01.946Z,177.50
2019-04-30T14:43:42.641Z,264.50
2019-04-30T14:46:30.932Z,228.00
2019-04-30T14:49:31.277Z,210.50
2019-04-30T14:52:01.068Z,214.50
2019-04-30T14:54:50.469Z,283.00
2019-04-30T14:57:36.726Z,218.50
2019-04-30T15:00:40.629Z,223.00
2019-04-30T15:03:12.031Z,328.50
2019-04-30T15:05:48.354Z,336.50
2019-04-30T15:08:11.930Z,278.50
2019-04-30T15:10:41.034Z,326.00
2019-04-30T15:13:10.201Z,271.50
2019-04-30T15:15:39.314Z,248.00
2019-04-30T15:18:09.260Z,236.00
2019-04-30T15:20:39.783Z,282.00
2019-04-30T15:23:26.699Z,260.50
2019-04-30T15:25:55.818Z,260.00
2019-04-30T15:28:32.352Z,235.00
2019-04-30T15:30:55.711Z,241.00
2019-04-30T15:33:42.207Z,255.00
2019-04-30T15:36:12.550Z,293.50
2019-04-30T15:38:59.442Z,152.00
2019-04-30T15:41:28.621Z,216.50
2019-04-30T15:43:57.644Z,180.50
2019-04-30T15:46:26.792Z,150.50
2019-04-30T15:48:55.788Z,150.50
2019-04-30T15:51:24.905Z,136.50
2019-04-30T15:53:53.922Z,131.00
2019-04-30T15:56:34.297Z,140.50
2019-04-30T15:59:18.982Z,142.00
2019-04-30T16:01:51.159Z,130.50
2019-04-30T16:04:28.547Z,131.50
2019-04-30T16:06:58.463Z,134.00
2019-04-30T16:09:33.772Z,121.00
2019-04-30T16:12:16.074Z,132.50
2019-04-30T16:14:46.476Z,125.00
2019-04-30T16:17:20.643Z,123.50
2019-04-30T16:19:49.846Z,138.00
2019-04-30T16:22:20.776Z,126.00
2019-04-30T16:24:51.093Z,134.50
2019-04-30T16:27:20.221Z,134.00
2019-04-30T16:29:49.969Z,130.00
2019-04-30T16:32:21.837Z,133.00
2019-04-30T16:34:50.876Z,131.00
2019-04-30T16:37:20.241Z,124.00
2019-04-30T16:39:49.415Z,121.00
2019-04-30T16:42:19.019Z,125.50
2019-04-30T16:44:48.258Z,124.50
2019-04-30T16:47:19.337Z,137.50
2019-04-30T16:49:49.266Z,126.50
2019-04-30T16:52:19.026Z,147.00
2019-04-30T16:54:49.722Z,146.50
2019-04-30T16:57:20.041Z,143.50
2019-04-30T16:59:49.964Z,134.50
2019-04-30T17:02:21.630Z,141.00
2019-04-30T17:05:04.526Z,142.00
2019-04-30T17:08:01.796Z,143.00
2019-04-30T17:10:40.501Z,135.50
2019-04-30T17:13:29.009Z,140.00
2019-04-30T17:16:03.908Z,122.50
2019-04-30T17:18:32.908Z,120.00
2019-04-30T17:21:01.953Z,140.50
2019-04-30T17:23:31.071Z,132.50
2019-04-30T17:26:01.705Z,124.00
2019-04-30T17:28:30.698Z,2.00
2019-04-30T17:30:59.754Z,3.00
2019-04-30T17:33:28.768Z,2.00
2019-04-30T17:35:57.834Z,12.00
2019-04-30T17:38:26.865Z,4.00
2019-04-30T17:40:55.975Z,173.00
2019-04-30T17:43:25.298Z,146.50
2019-04-30T17:45:54.321Z,95.50
2019-04-30T17:48:24.673Z,199.00
2019-04-30T17:50:54.392Z,84.00
2019-04-30T17:53:23.525Z,137.50
2019-04-30T17:55:52.636Z,222.00
2019-04-30T17:58:21.650Z,172.00
2019-04-30T18:00:54.347Z,131.50
2019-04-30T18:03:23.391Z,84.00
2019-04-30T18:05:52.540Z,127.50
2019-04-30T18:08:21.811Z,101.50
2019-04-30T18:10:52.222Z,110.50
2019-04-30T18:13:21.313Z,109.50
2019-04-30T18:15:50.409Z,163.50
2019-04-30T18:18:31.213Z,140.00
2019-04-30T18:21:12.969Z,103.00
2019-04-30T18:23:55.337Z,57.50
2019-04-30T18:26:24.454Z,41.50
2019-04-30T18:28:53.511Z,39.50
2019-04-30T18:31:24.015Z,45.50
2019-04-30T18:33:53.075Z,55.00
2019-04-30T18:36:22.127Z,80.50
2019-04-30T18:38:51.128Z,72.50
2019-04-30T18:41:20.261Z,53.50
2019-04-30T18:43:49.335Z,71.50
2019-04-30T18:46:19.161Z,86.00
2019-04-30T18:48:49.417Z,40.00
2019-04-30T18:51:32.862Z,65.00
2019-04-30T18:53:49.930Z,191.00
2019-04-30T18:56:19.205Z,148.00
2019-04-30T18:58:48.699Z,154.50
2019-04-30T19:01:17.915Z,107.50
2019-04-30T19:03:46.936Z,138.50
2019-04-30T19:06:23.719Z,176.50
2019-04-30T19:09:20.730Z,26.50
2019-04-30T19:11:59.668Z,213.50
2019-04-30T19:14:49.213Z,245.00
2019-04-30T19:17:32.123Z,213.00
2019-04-30T19:20:19.480Z,171.50
2019-04-30T19:22:48.580Z,212.00
2019-04-30T19:25:19.075Z,103.50
2019-04-30T19:27:48.239Z,26.50
2019-04-30T19:30:19.365Z,93.00
2019-04-30T19:32:49.126Z,158.50
2019-04-30T19:35:18.855Z,95.00
2019-04-30T19:37:48.711Z,101.50
2019-04-30T19:40:19.025Z,148.00
2019-04-30T19:42:50.319Z,154.50
2019-04-30T19:45:20.277Z,33.50
2019-04-30T19:47:49.375Z,109.00
2019-04-30T19:50:19.320Z,96.50
2019-04-30T19:52:48.484Z,57.00
2019-04-30T19:55:20.396Z,86.00
2019-04-30T19:57:48.407Z,143.50
2019-04-30T20:00:19.809Z,82.50
2019-04-30T20:02:48.834Z,66.00
2019-04-30T20:05:19.528Z,64.00
2019-04-30T20:07:49.362Z,74.50
2019-04-30T20:10:19.570Z,147.00
2019-04-30T20:12:49.757Z,88.00
2019-04-30T20:15:22.120Z,136.00
2019-04-30T20:17:49.967Z,90.00
2019-04-30T20:20:19.099Z,229.00
2019-04-30T20:22:48.119Z,204.50
2019-04-30T20:25:18.977Z,126.50
2019-04-30T20:27:49.574Z,53.00
2019-04-30T20:30:19.576Z,3.50
2019-04-30T20:32:49.079Z,1.50
2019-04-30T20:35:19.449Z,2.00
2019-04-30T20:38:06.286Z,1.50
2019-04-30T20:40:43.261Z,4.00
2019-04-30T20:43:08.552Z,2.00
2019-04-30T20:45:40.129Z,2.00
2019-04-30T20:48:09.198Z,2.00
2019-04-30T20:50:38.341Z,4.00
2019-04-30T20:53:09.445Z,2.00
2019-04-30T20:55:40.788Z,2.00
2019-04-30T20:58:09.628Z,2.00
2019-04-30T21:00:39.987Z,2.00
2019-04-30T21:03:09.678Z,2.00
2019-04-30T21:05:39.459Z,2.00
2019-04-30T21:08:08.647Z,2.00
2019-04-30T21:10:39.572Z,4.00
2019-04-30T21:13:10.958Z,2.00
2019-04-30T21:15:39.585Z,4.00
2019-04-30T21:18:09.510Z,2.00
2019-04-30T21:20:38.859Z,3.50
2019-04-30T21:23:09.416Z,2.50
2019-04-30T21:25:38.784Z,2.00
2019-04-30T21:28:09.751Z,4.00
2019-04-30T21:30:38.861Z,2.00
2019-04-30T21:33:22.855Z,1.00
2019-04-30T21:36:14.007Z,2.00
2019-04-30T21:38:42.997Z,2.00
2019-04-30T21:41:11.976Z,1.50
2019-04-30T21:43:40.954Z,2.00
2019-04-30T21:46:09.909Z,2.00
2019-04-30T21:48:39.025Z,11.50
2019-04-30T21:51:09.467Z,10.00
2019-04-30T21:53:39.571Z,2.00
2019-04-30T21:56:08.836Z,2.50
2019-04-30T21:58:39.272Z,8.00
2019-04-30T22:01:16.098Z,2.00
2019-04-30T22:03:45.355Z,19.50
2019-04-30T22:06:14.765Z,2.00
2019-04-30T22:08:43.883Z,6.00
2019-04-30T22:11:12.981Z,5.50
2019-04-30T22:13:43.255Z,4.50
2019-04-30T22:16:12.569Z,3.00
2019-04-30T22:18:41.635Z,2.00
2019-04-30T22:21:10.739Z,2.00
2019-04-30T22:23:39.743Z,2.00
2019-04-30T22:26:08.726Z,2.00
2019-04-30T22:28:39.121Z,2.00
2019-04-30T22:31:08.687Z,1.50
2019-04-30T22:33:39.227Z,2.00
2019-04-30T22:36:39.240Z,2.00
2019-04-30T22:39:33.312Z,2.00
2019-04-30T22:42:39.972Z,2.00
2019-04-30T22:45:17.566Z,2.00
2019-04-30T22:47:46.609Z,1.50
2019-04-30T22:50:15.943Z,2.00
2019-04-30T22:52:44.914Z,2.00
2019-04-30T22:55:14.027Z,2.00
2019-04-30T22:57:43.166Z,2.00
2019-04-30T23:00:17.064Z,2.00
2019-04-30T23:03:04.604Z,2.00
2019-04-30T23:05:33.677Z,1.50
2019-04-30T23:08:04.187Z,2.00
2019-04-30T23:10:33.280Z,2.00
2019-04-30T23:13:02.353Z,1.50
2019-04-30T23:15:31.459Z,2.00
2019-04-30T23:18:00.611Z,1.50
2019-04-30T23:20:29.742Z,2.00
2019-04-30T23:22:58.722Z,2.00
2019-04-30T23:25:27.699Z,1.50
2019-04-30T23:27:56.743Z,2.50
2019-04-30T23:30:25.868Z,0.50
2019-04-30T23:32:54.998Z,1.50
2019-04-30T23:35:24.016Z,3.00
2019-04-30T23:37:52.975Z,4.00
2019-04-30T23:40:30.179Z,1.50
2019-04-30T23:42:59.293Z,2.50
2019-04-30T23:45:28.532Z,3.00
2019-04-30T23:47:57.639Z,3.50
2019-04-30T23:50:26.694Z,2.00
2019-04-30T23:52:55.820Z,2.00
2019-04-30T23:55:24.852Z,1.50
2019-04-30T23:57:53.918Z,1.50
